Time;durP1;ratioP1;P1;durP2;ratioP2;P2;SDS_P1;SDS_P2;PMS_P1;PMS_P2;Temp;Humidity;BMP_temperature;BMP_pressure;BME280_temperature;BME280_humidity;BME280_pressure;Samples;Min_cycle;Max_cycle;Signal;HPM_P1;HPM_P2
2021/10/21 00:01:39;;;;;;;0.60;0.60;;;;;;;;;;5033295;28;20417;-75
2021/10/21 00:04:04;;;;;;;1.05;0.95;;;;;;;;;;5033374;28;20179;-75
2021/10/21 00:06:30;;;;;;;0.70;0.70;;;;;;;;;;5032619;28;20199;-75
2021/10/21 00:08:56;;;;;;;3.07;0.87;;;;;;;;;;5032989;28;20445;-75
2021/10/21 00:11:23;;;;;;;0.70;0.60;;;;;;;;;;5033019;28;20459;-74
2021/10/21 00:13:49;;;;;;;0.60;0.50;;;;;;;;;;5033346;28;20478;-75
2021/10/21 00:16:14;;;;;;;2.40;2.30;;;;;;;;;;5032355;28;20174;-75
2021/10/21 00:18:40;;;;;;;2.60;1.27;;;;;;;;;;5041003;28;20420;-74
2021/10/21 00:21:07;;;;;;;2.53;0.63;;;;;;;;;;5031895;28;20413;-74
2021/10/21 00:23:33;;;;;;;0.60;0.60;;;;;;;;;;5032807;28;20734;-74
2021/10/21 00:26:06;;;;;;;1.00;0.90;;;;;;;;;;5029366;28;20428;-74
2021/10/21 00:28:32;;;;;;;0.80;0.70;;;;;;;;;;5031794;28;20401;-75
2021/10/21 00:30:58;;;;;;;0.60;0.50;;;;;;;;;;5032618;28;20282;-75
2021/10/21 00:33:24;;;;;;;0.60;0.60;;;;;;;;;;5032737;28;20416;-74
2021/10/21 00:35:50;;;;;;;2.38;0.80;;;;;;;;;;5030983;28;20410;-75
2021/10/21 00:38:16;;;;;;;0.60;0.50;;;;;;;;;;5032492;28;20276;-75
2021/10/21 00:40:41;;;;;;;0.90;0.77;;;;;;;;;;5032515;28;20428;-74
2021/10/21 00:43:07;;;;;;;0.60;0.60;;;;;;;;;;5032373;28;20418;-74
2021/10/21 00:45:34;;;;;;;0.70;0.70;;;;;;;;;;5031522;28;20491;-74
2021/10/21 00:47:59;;;;;;;1.60;0.60;;;;;;;;;;5035517;28;20491;-74
2021/10/21 00:50:25;;;;;;;0.70;0.50;;;;;;;;;;5045708;28;20499;-75
2021/10/21 00:52:52;;;;;;;0.70;0.60;;;;;;;;;;5051292;28;20407;-74
2021/10/21 00:55:18;;;;;;;1.48;0.82;;;;;;;;;;5051239;28;20408;-74
2021/10/21 00:57:45;;;;;;;0.70;0.70;;;;;;;;;;5051186;28;20221;-74
2021/10/21 01:00:11;;;;;;;0.70;0.70;;;;;;;;;;5052061;28;20236;-74
2021/10/21 01:02:37;;;;;;;1.20;0.60;;;;;;;;;;5051660;28;20408;-74
2021/10/21 01:05:03;;;;;;;1.30;0.60;;;;;;;;;;5051147;28;20446;-74
2021/10/21 01:07:29;;;;;;;0.90;0.80;;;;;;;;;;5050392;28;20419;-74
2021/10/21 01:09:55;;;;;;;1.45;0.70;;;;;;;;;;5051199;28;20473;-74
2021/10/21 01:12:21;;;;;;;0.60;0.50;;;;;;;;;;5051845;28;20200;-74
2021/10/21 01:14:47;;;;;;;0.60;0.57;;;;;;;;;;5052038;28;20166;-75
2021/10/21 01:17:14;;;;;;;0.60;0.60;;;;;;;;;;5042679;28;20481;-74
2021/10/21 01:19:40;;;;;;;0.60;0.60;;;;;;;;;;5036321;28;20420;-74
2021/10/21 01:22:06;;;;;;;0.60;0.50;;;;;;;;;;5051137;28;20453;-74
2021/10/21 01:24:32;;;;;;;0.80;0.60;;;;;;;;;;5051152;28;20440;-74
2021/10/21 01:26:58;;;;;;;0.70;0.60;;;;;;;;;;5049963;28;20514;-74
2021/10/21 01:29:25;;;;;;;0.60;0.50;;;;;;;;;;5050856;28;20403;-74
2021/10/21 01:31:52;;;;;;;0.60;0.60;;;;;;;;;;5051922;28;20179;-74
2021/10/21 01:34:18;;;;;;;0.60;0.50;;;;;;;;;;5033099;28;20407;-74
2021/10/21 01:36:48;;;;;;;0.70;0.50;;;;;;;;;;5050406;28;20464;-74
2021/10/21 01:39:14;;;;;;;0.70;0.50;;;;;;;;;;5050723;28;20469;-74
2021/10/21 01:41:40;;;;;;;0.80;0.70;;;;;;;;;;5050626;28;20415;-74
2021/10/21 01:44:06;;;;;;;0.70;0.60;;;;;;;;;;5051001;28;20412;-74
2021/10/21 01:46:32;;;;;;;0.80;0.57;;;;;;;;;;5048869;28;20451;-74
2021/10/21 01:48:58;;;;;;;0.70;0.50;;;;;;;;;;5048588;28;20461;-74
2021/10/21 01:51:24;;;;;;;0.70;0.50;;;;;;;;;;5034971;28;20904;-74
2021/10/21 01:53:50;;;;;;;1.70;0.80;;;;;;;;;;5034880;28;20879;-75
2021/10/21 01:56:15;;;;;;;0.70;0.50;;;;;;;;;;5034176;28;20480;-74
2021/10/21 01:58:41;;;;;;;0.80;0.70;;;;;;;;;;5034616;28;20383;-74
2021/10/21 02:01:07;;;;;;;0.70;0.50;;;;;;;;;;5034544;28;20769;-75
2021/10/21 02:03:33;;;;;;;0.70;0.50;;;;;;;;;;5035233;28;20407;-74
2021/10/21 02:05:59;;;;;;;0.70;0.60;;;;;;;;;;5032658;28;20508;-74
2021/10/21 02:08:25;;;;;;;0.60;0.50;;;;;;;;;;5035256;28;20901;-74
2021/10/21 02:10:51;;;;;;;0.60;0.60;;;;;;;;;;5035373;28;20421;-74
2021/10/21 02:13:17;;;;;;;0.70;0.50;;;;;;;;;;5034540;28;20401;-74
2021/10/21 02:15:43;;;;;;;0.70;0.55;;;;;;;;;;5033974;28;20472;-74
2021/10/21 02:18:09;;;;;;;0.60;0.50;;;;;;;;;;5042827;28;20408;-74
2021/10/21 02:20:35;;;;;;;0.70;0.50;;;;;;;;;;5035642;28;20990;-74
2021/10/21 02:23:01;;;;;;;0.70;0.50;;;;;;;;;;5034295;28;20391;-74
2021/10/21 02:25:27;;;;;;;0.60;0.60;;;;;;;;;;5035288;28;20924;-74
2021/10/21 02:27:53;;;;;;;0.60;0.60;;;;;;;;;;5033805;28;20426;-74
2021/10/21 02:30:20;;;;;;;0.70;0.50;;;;;;;;;;5033558;28;20397;-74
2021/10/21 02:32:46;;;;;;;0.95;0.60;;;;;;;;;;5034680;28;20788;-74
2021/10/21 02:35:13;;;;;;;0.70;0.50;;;;;;;;;;5034203;28;20769;-74
2021/10/21 02:37:39;;;;;;;0.85;0.60;;;;;;;;;;5033897;28;20420;-75
2021/10/21 02:40:07;;;;;;;0.60;0.60;;;;;;;;;;5034456;28;20413;-74
2021/10/21 02:42:33;;;;;;;0.60;0.60;;;;;;;;;;5034558;28;20428;-74
2021/10/21 02:44:59;;;;;;;0.60;0.50;;;;;;;;;;5034590;28;20788;-74
2021/10/21 02:47:25;;;;;;;0.70;0.50;;;;;;;;;;5039332;28;20511;-74
2021/10/21 02:49:51;;;;;;;2.00;0.50;;;;;;;;;;5042138;28;20403;-74
2021/10/21 02:52:17;;;;;;;2.10;0.60;;;;;;;;;;5033964;28;20413;-75
2021/10/21 02:54:43;;;;;;;1.00;0.50;;;;;;;;;;5034013;28;20413;-75
2021/10/21 02:57:09;;;;;;;0.60;0.60;;;;;;;;;;5015739;28;20572;-75
2021/10/21 02:59:35;;;;;;;0.70;0.50;;;;;;;;;;5032389;28;20412;-75
2021/10/21 03:02:01;;;;;;;0.80;0.60;;;;;;;;;;5033430;28;20742;-74
2021/10/21 03:04:27;;;;;;;0.70;0.50;;;;;;;;;;5033593;28;20428;-74
2021/10/21 03:06:53;;;;;;;1.00;0.60;;;;;;;;;;5032691;28;20417;-74
2021/10/21 03:09:19;;;;;;;0.70;0.50;;;;;;;;;;5033294;28;20459;-74
2021/10/21 03:11:45;;;;;;;0.70;0.50;;;;;;;;;;5032792;28;20420;-74
2021/10/21 03:14:11;;;;;;;1.27;0.73;;;;;;;;;;5033157;28;20401;-74
2021/10/21 03:16:38;;;;;;;1.02;0.93;;;;;;;;;;5033399;28;20705;-74
2021/10/21 03:19:04;;;;;;;0.70;0.50;;;;;;;;;;5041876;28;20398;-74
2021/10/21 03:21:31;;;;;;;0.60;0.50;;;;;;;;;;5032636;28;20209;-74
2021/10/21 03:23:57;;;;;;;1.33;0.60;;;;;;;;;;5033865;28;20480;-74
2021/10/21 03:26:24;;;;;;;0.60;0.60;;;;;;;;;;5033007;28;20455;-74
2021/10/21 03:28:50;;;;;;;2.80;0.50;;;;;;;;;;5032798;28;20406;-74
2021/10/21 03:31:16;;;;;;;0.70;0.50;;;;;;;;;;5033362;28;20459;-75
2021/10/21 03:33:42;;;;;;;0.70;0.50;;;;;;;;;;5032895;28;20444;-74
2021/10/21 03:36:08;;;;;;;0.60;0.60;;;;;;;;;;5033093;28;20198;-74
2021/10/21 03:38:34;;;;;;;0.70;0.60;;;;;;;;;;5032949;28;20428;-74
2021/10/21 03:41:00;;;;;;;0.70;0.50;;;;;;;;;;5032901;28;20492;-75
2021/10/21 03:43:26;;;;;;;0.70;0.60;;;;;;;;;;5033011;28;20405;-74
2021/10/21 03:45:52;;;;;;;1.60;0.50;;;;;;;;;;5032214;28;20945;-74
2021/10/21 03:48:18;;;;;;;0.70;0.50;;;;;;;;;;5040586;28;20435;-74
2021/10/21 03:50:44;;;;;;;0.70;0.50;;;;;;;;;;5037124;28;20496;-74
2021/10/21 03:53:12;;;;;;;0.70;0.50;;;;;;;;;;5031922;28;20439;-74
2021/10/21 03:55:39;;;;;;;1.70;0.50;;;;;;;;;;5032165;28;20397;-74
2021/10/21 03:58:05;;;;;;;0.60;0.60;;;;;;;;;;5032449;28;20198;-75
2021/10/21 04:00:31;;;;;;;0.60;0.50;;;;;;;;;;5033026;28;20410;-75
2021/10/21 04:02:57;;;;;;;0.70;0.50;;;;;;;;;;5032305;28;20408;-75
2021/10/21 04:05:23;;;;;;;0.70;0.50;;;;;;;;;;5032843;28;20495;-75
2021/10/21 04:07:49;;;;;;;0.60;0.60;;;;;;;;;;5032547;28;20697;-74
2021/10/21 04:10:15;;;;;;;0.70;0.50;;;;;;;;;;5031844;28;20459;-74
2021/10/21 04:12:41;;;;;;;0.70;0.50;;;;;;;;;;5031828;28;20394;-74
2021/10/21 04:15:08;;;;;;;0.70;0.50;;;;;;;;;;5032703;28;20487;-74
2021/10/21 04:17:34;;;;;;;0.70;0.50;;;;;;;;;;5039054;28;20414;-74
2021/10/21 04:20:00;;;;;;;0.70;0.50;;;;;;;;;;5039691;28;20407;-74
2021/10/21 04:22:26;;;;;;;0.70;0.50;;;;;;;;;;5012168;28;20443;-74
2021/10/21 04:24:52;;;;;;;0.70;0.50;;;;;;;;;;5011751;28;20414;-75
2021/10/21 04:27:17;;;;;;;0.70;0.50;;;;;;;;;;5010978;28;20422;-74
2021/10/21 04:29:44;;;;;;;1.60;0.50;;;;;;;;;;5010640;28;20415;-74
2021/10/21 04:32:10;;;;;;;0.70;0.50;;;;;;;;;;5012111;28;20874;-75
2021/10/21 04:34:36;;;;;;;0.60;0.60;;;;;;;;;;5013018;28;20665;-75
2021/10/21 04:37:02;;;;;;;0.60;0.60;;;;;;;;;;5011914;28;20277;-74
2021/10/21 04:39:28;;;;;;;0.60;0.60;;;;;;;;;;5012968;28;20913;-74
2021/10/21 04:41:54;;;;;;;0.60;0.50;;;;;;;;;;5012592;28;20179;-74
2021/10/21 04:44:20;;;;;;;0.60;0.60;;;;;;;;;;5012902;28;20402;-74
2021/10/21 04:46:55;;;;;;;0.60;0.60;;;;;;;;;;5016081;28;20449;-74
2021/10/21 04:49:21;;;;;;;0.60;0.60;;;;;;;;;;5044210;28;20165;-74
2021/10/21 04:51:47;;;;;;;0.60;0.60;;;;;;;;;;5038440;28;20688;-74
2021/10/21 04:54:13;;;;;;;0.70;0.50;;;;;;;;;;5031376;28;20404;-74
2021/10/21 04:56:40;;;;;;;0.60;0.60;;;;;;;;;;5031596;28;20175;-74
2021/10/21 04:59:06;;;;;;;0.70;0.50;;;;;;;;;;5031741;28;20492;-74
2021/10/21 05:01:33;;;;;;;0.70;0.50;;;;;;;;;;5031378;28;20481;-74
2021/10/21 05:03:59;;;;;;;0.70;0.50;;;;;;;;;;5031682;28;20488;-74
2021/10/21 05:06:25;;;;;;;0.70;0.50;;;;;;;;;;5030389;28;20505;-74
2021/10/21 05:08:50;;;;;;;1.90;0.60;;;;;;;;;;5030838;28;20406;-74
2021/10/21 05:11:16;;;;;;;0.60;0.50;;;;;;;;;;5031893;28;20425;-74
2021/10/21 05:13:42;;;;;;;1.10;0.60;;;;;;;;;;5031109;28;20401;-74
2021/10/21 05:16:08;;;;;;;0.80;0.60;;;;;;;;;;5030753;28;20409;-74
2021/10/21 05:18:34;;;;;;;0.70;0.50;;;;;;;;;;5038942;28;20459;-74
2021/10/21 05:21:00;;;;;;;0.60;0.55;;;;;;;;;;5037693;28;20425;-74
2021/10/21 05:23:26;;;;;;;0.60;0.60;;;;;;;;;;5031514;28;20248;-75
2021/10/21 05:25:52;;;;;;;0.60;0.60;;;;;;;;;;5031282;28;20171;-74
2021/10/21 05:28:18;;;;;;;0.60;0.60;;;;;;;;;;5013711;28;20783;-73
2021/10/21 05:30:44;;;;;;;0.60;0.60;;;;;;;;;;5031881;28;20177;-72
2021/10/21 05:33:10;;;;;;;0.70;0.50;;;;;;;;;;5031427;28;20901;-72
2021/10/21 05:35:36;;;;;;;0.60;0.60;;;;;;;;;;5031698;28;20193;-72
2021/10/21 05:38:02;;;;;;;0.60;0.60;;;;;;;;;;5031322;28;20818;-73
2021/10/21 05:40:28;;;;;;;0.70;0.50;;;;;;;;;;5031053;28;20413;-74
2021/10/21 05:42:54;;;;;;;0.60;0.60;;;;;;;;;;5031742;28;20178;-73
2021/10/21 05:45:20;;;;;;;0.60;0.60;;;;;;;;;;5031727;28;20174;-74
2021/10/21 05:47:47;;;;;;;0.60;0.50;;;;;;;;;;5038139;28;20428;-74
2021/10/21 05:50:13;;;;;;;0.60;0.60;;;;;;;;;;5040596;28;20173;-74
2021/10/21 05:52:39;;;;;;;0.60;0.60;;;;;;;;;;5031538;28;20200;-74
2021/10/21 05:55:05;;;;;;;0.60;0.60;;;;;;;;;;5031805;28;20214;-74
2021/10/21 05:57:31;;;;;;;0.60;0.50;;;;;;;;;;5030178;28;20405;-74
2021/10/21 05:59:58;;;;;;;0.60;0.60;;;;;;;;;;5031720;28;20259;-75
2021/10/21 06:02:24;;;;;;;0.60;0.60;;;;;;;;;;5031580;28;20716;-74
2021/10/21 06:04:50;;;;;;;0.60;0.60;;;;;;;;;;5031449;28;20178;-74
2021/10/21 06:07:16;;;;;;;0.63;0.60;;;;;;;;;;5030513;28;20464;-74
2021/10/21 06:09:42;;;;;;;0.60;0.60;;;;;;;;;;5031776;28;20189;-75
2021/10/21 06:12:08;;;;;;;0.83;0.83;;;;;;;;;;5031166;28;20429;-74
2021/10/21 06:14:34;;;;;;;0.60;0.60;;;;;;;;;;5031545;28;20412;-74
2021/10/21 06:17:00;;;;;;;0.60;0.60;;;;;;;;;;5033126;28;21938;-72
2021/10/21 06:19:26;;;;;;;0.60;0.60;;;;;;;;;;5042815;28;20189;-72
2021/10/21 06:22:03;;;;;;;0.70;0.70;;;;;;;;;;5039840;28;20190;-72
2021/10/21 06:24:29;;;;;;;0.85;0.85;;;;;;;;;;5031395;28;20668;-73
2021/10/21 06:26:55;;;;;;;0.60;0.60;;;;;;;;;;5030576;28;20212;-72
2021/10/21 06:29:21;;;;;;;0.60;0.60;;;;;;;;;;5031067;28;20413;-73
2021/10/21 06:31:48;;;;;;;0.70;0.60;;;;;;;;;;5031306;28;20540;-73
2021/10/21 06:34:14;;;;;;;0.70;0.60;;;;;;;;;;5033742;28;20463;-74
2021/10/21 06:36:40;;;;;;;0.70;0.60;;;;;;;;;;5032772;28;20186;-73
2021/10/21 06:39:06;;;;;;;1.35;1.05;;;;;;;;;;5034253;28;20189;-74
2021/10/21 06:41:32;;;;;;;0.70;0.60;;;;;;;;;;5034905;28;20183;-74
2021/10/21 06:43:58;;;;;;;0.80;0.80;;;;;;;;;;5034527;28;20942;-73
2021/10/21 06:46:26;;;;;;;0.70;0.60;;;;;;;;;;5033809;28;20469;-72
2021/10/21 06:48:52;;;;;;;0.70;0.65;;;;;;;;;;5039986;28;20233;-71
2021/10/21 06:51:18;;;;;;;0.70;0.63;;;;;;;;;;5034548;28;20170;-73
2021/10/21 06:53:43;;;;;;;0.80;0.80;;;;;;;;;;5034731;28;20885;-75
2021/10/21 06:56:09;;;;;;;0.70;0.60;;;;;;;;;;5033785;28;20442;-75
2021/10/21 06:58:36;;;;;;;0.70;0.60;;;;;;;;;;5033016;28;20465;-74
2021/10/21 07:01:01;;;;;;;0.70;0.60;;;;;;;;;;5034291;28;20425;-74
2021/10/21 07:03:27;;;;;;;0.70;0.60;;;;;;;;;;5034111;28;20178;-74
2021/10/21 07:05:54;;;;;;;0.97;0.90;;;;;;;;;;5033593;28;20443;-76
2021/10/21 07:08:20;;;;;;;1.60;1.30;;;;;;;;;;5034441;28;20495;-75
2021/10/21 07:10:47;;;;;;;0.70;0.70;;;;;;;;;;5034332;28;20170;-75
2021/10/21 07:13:13;;;;;;;0.70;0.60;;;;;;;;;;5034068;28;20183;-75
2021/10/21 07:15:40;;;;;;;0.70;0.60;;;;;;;;;;5034155;28;20187;-75
2021/10/21 07:18:06;;;;;;;0.70;0.60;;;;;;;;;;5041302;28;20197;-75
2021/10/21 07:20:32;;;;;;;0.70;0.60;;;;;;;;;;5049366;28;20680;-75
2021/10/21 07:22:58;;;;;;;0.80;0.70;;;;;;;;;;5049416;28;20206;-74
2021/10/21 07:25:27;;;;;;;1.70;1.02;;;;;;;;;;5033238;28;20220;-75
2021/10/21 07:27:53;;;;;;;0.70;0.60;;;;;;;;;;5032834;28;20697;-74
2021/10/21 07:30:19;;;;;;;0.70;0.60;;;;;;;;;;5033524;28;20182;-75
2021/10/21 07:32:45;;;;;;;1.30;1.20;;;;;;;;;;5033525;28;20877;-73
2021/10/21 07:35:11;;;;;;;0.70;0.60;;;;;;;;;;5033754;28;20401;-73
2021/10/21 07:37:37;;;;;;;0.70;0.60;;;;;;;;;;5032763;28;20536;-75
2021/10/21 07:40:03;;;;;;;0.80;0.60;;;;;;;;;;5033730;28;20181;-75
2021/10/21 07:42:29;;;;;;;0.77;0.60;;;;;;;;;;5033430;28;20210;-75
2021/10/21 07:44:56;;;;;;;0.80;0.70;;;;;;;;;;5033024;28;20183;-75
2021/10/21 07:47:23;;;;;;;0.80;0.60;;;;;;;;;;5036340;28;20217;-74
2021/10/21 07:49:49;;;;;;;0.80;0.60;;;;;;;;;;5045045;28;20165;-76
2021/10/21 07:52:17;;;;;;;0.75;0.60;;;;;;;;;;5053585;28;20189;-75
2021/10/21 07:54:43;;;;;;;0.70;0.60;;;;;;;;;;5053398;28;20206;-75
2021/10/21 07:57:09;;;;;;;0.75;0.70;;;;;;;;;;5052530;28;20622;-74
2021/10/21 07:59:35;;;;;;;0.80;0.60;;;;;;;;;;5052853;28;20227;-75
2021/10/21 08:02:02;;;;;;;0.75;0.60;;;;;;;;;;5053043;28;20181;-74
2021/10/21 08:04:31;;;;;;;0.80;0.70;;;;;;;;;;5053094;28;20197;-74
2021/10/21 08:06:57;;;;;;;0.70;0.70;;;;;;;;;;5052276;28;20194;-74
2021/10/21 08:09:25;;;;;;;0.70;0.60;;;;;;;;;;5053126;28;20638;-75
2021/10/21 08:11:52;;;;;;;0.98;0.85;;;;;;;;;;5039152;28;20276;-74
2021/10/21 08:14:19;;;;;;;0.70;0.60;;;;;;;;;;5032711;28;20211;-75
2021/10/21 08:16:45;;;;;;;1.02;0.98;;;;;;;;;;5032444;28;20220;-75
2021/10/21 08:19:12;;;;;;;0.70;0.60;;;;;;;;;;5044599;28;20235;-74
2021/10/21 08:21:38;;;;;;;0.75;0.68;;;;;;;;;;5052910;28;20219;-74
2021/10/21 08:24:05;;;;;;;0.70;0.70;;;;;;;;;;5052925;28;20605;-73
2021/10/21 08:26:31;;;;;;;0.77;0.60;;;;;;;;;;5033985;28;20548;-74
2021/10/21 08:28:58;;;;;;;1.20;1.20;;;;;;;;;;5052351;28;20615;-74
2021/10/21 08:31:24;;;;;;;0.70;0.60;;;;;;;;;;5052518;28;20495;-74
2021/10/21 08:33:50;;;;;;;0.70;0.70;;;;;;;;;;5052822;28;20183;-75
2021/10/21 08:36:17;;;;;;;0.70;0.60;;;;;;;;;;5051838;28;20169;-74
2021/10/21 08:38:42;;;;;;;0.70;0.60;;;;;;;;;;5039806;28;20256;-73
2021/10/21 08:41:10;;;;;;;0.70;0.60;;;;;;;;;;5031420;28;20205;-74
2021/10/21 08:43:36;;;;;;;0.70;0.60;;;;;;;;;;5032139;28;20893;-74
2021/10/21 08:46:03;;;;;;;4.50;1.63;;;;;;;;;;5031892;28;20187;-73
2021/10/21 08:48:34;;;;;;;0.98;0.82;;;;;;;;;;5040705;28;21147;-75
2021/10/21 08:51:01;;;;;;;0.80;0.80;;;;;;;;;;5052084;28;20726;-74
2021/10/21 08:53:27;;;;;;;0.70;0.60;;;;;;;;;;5052526;28;20544;-74
2021/10/21 08:55:54;;;;;;;0.70;0.70;;;;;;;;;;5051341;28;20166;-74
2021/10/21 08:58:21;;;;;;;3.90;0.82;;;;;;;;;;5051475;28;20514;-75
2021/10/21 09:00:56;;;;;;;0.70;0.60;;;;;;;;;;5052615;28;20262;-76
2021/10/21 09:03:44;;;;;;;0.70;0.70;;;;;;;;;;5041976;28;20185;-75
2021/10/21 09:06:27;;;;;;;1.02;0.90;;;;;;;;;;5031331;28;20186;-74
2021/10/21 09:08:53;;;;;;;0.70;0.60;;;;;;;;;;5032139;28;20194;-76
2021/10/21 09:11:21;;;;;;;0.70;0.60;;;;;;;;;;5032170;28;20186;-74
2021/10/21 09:13:47;;;;;;;0.70;0.70;;;;;;;;;;5031657;28;20170;-75
2021/10/21 09:16:17;;;;;;;0.80;0.75;;;;;;;;;;5031342;28;20181;-75
2021/10/21 09:18:47;;;;;;;0.70;0.60;;;;;;;;;;5040244;28;20861;-75
2021/10/21 09:21:33;;;;;;;0.70;0.70;;;;;;;;;;5052112;28;20657;-75
2021/10/21 09:24:20;;;;;;;0.70;0.60;;;;;;;;;;5051928;28;20209;-74
2021/10/21 09:26:59;;;;;;;0.70;0.70;;;;;;;;;;5050786;28;20216;-74
2021/10/21 09:29:25;;;;;;;0.70;0.70;;;;;;;;;;5031217;28;20209;-75
2021/10/21 09:32:10;;;;;;;1.55;0.82;;;;;;;;;;5031814;28;20186;-75
2021/10/21 09:34:56;;;;;;;0.70;0.60;;;;;;;;;;5031862;28;20681;-74
2021/10/21 09:37:24;;;;;;;0.70;0.50;;;;;;;;;;5030778;28;20235;-75
2021/10/21 09:39:52;;;;;;;0.70;0.60;;;;;;;;;;5031745;28;20552;-75
2021/10/21 09:42:18;;;;;;;0.70;0.60;;;;;;;;;;5031595;28;20181;-75
2021/10/21 09:44:45;;;;;;;0.70;0.60;;;;;;;;;;5031566;28;20185;-75
2021/10/21 09:47:18;;;;;;;0.70;0.60;;;;;;;;;;5034833;28;20292;-75
2021/10/21 09:49:45;;;;;;;0.70;0.60;;;;;;;;;;5043468;28;20246;-75
2021/10/21 09:52:15;;;;;;;0.70;0.60;;;;;;;;;;5051763;28;20540;-75
2021/10/21 09:54:41;;;;;;;0.70;0.60;;;;;;;;;;5045573;28;20182;-74
2021/10/21 09:57:13;;;;;;;0.70;0.70;;;;;;;;;;5030441;28;20600;-73
2021/10/21 09:59:40;;;;;;;0.70;0.60;;;;;;;;;;5031565;28;20960;-75
2021/10/21 10:02:17;;;;;;;0.88;0.80;;;;;;;;;;5031464;28;20178;-74
2021/10/21 10:04:48;;;;;;;0.80;0.80;;;;;;;;;;5031441;28;20204;-74
2021/10/21 10:07:14;;;;;;;3.20;0.70;;;;;;;;;;5030647;28;20213;-75
2021/10/21 10:09:40;;;;;;;0.70;0.60;;;;;;;;;;5035172;28;20544;-73
2021/10/21 10:12:07;;;;;;;0.70;0.60;;;;;;;;;;5035291;28;20173;-75
2021/10/21 10:14:44;;;;;;;0.70;0.60;;;;;;;;;;5035031;28;20272;-74
2021/10/21 10:17:11;;;;;;;0.73;0.73;;;;;;;;;;5038319;28;20255;-75
2021/10/21 10:19:41;;;;;;;0.70;0.60;;;;;;;;;;5046901;28;20218;-74
2021/10/21 10:22:08;;;;;;;0.70;0.65;;;;;;;;;;5055251;28;20174;-75
2021/10/21 10:24:35;;;;;;;0.70;0.60;;;;;;;;;;5055067;28;20312;-75
2021/10/21 10:27:03;;;;;;;0.70;0.60;;;;;;;;;;5033918;28;20214;-74
2021/10/21 10:29:32;;;;;;;0.70;0.60;;;;;;;;;;5034709;28;20171;-75
2021/10/21 10:32:00;;;;;;;0.70;0.60;;;;;;;;;;5035072;28;20597;-75
2021/10/21 10:34:35;;;;;;;0.70;0.60;;;;;;;;;;5035125;28;20178;-75
2021/10/21 10:37:13;;;;;;;0.70;0.60;;;;;;;;;;5034087;28;20202;-75
2021/10/21 10:39:46;;;;;;;0.70;0.60;;;;;;;;;;5034654;28;20178;-74
2021/10/21 10:42:13;;;;;;;0.70;0.60;;;;;;;;;;5034853;28;20186;-73
2021/10/21 10:44:39;;;;;;;2.13;1.13;;;;;;;;;;5034542;28;20185;-74
2021/10/21 10:47:06;;;;;;;0.70;0.60;;;;;;;;;;5037152;28;20209;-74
2021/10/21 10:49:41;;;;;;;0.70;0.70;;;;;;;;;;5046405;28;20404;-75
2021/10/21 10:52:10;;;;;;;1.15;0.73;;;;;;;;;;5054568;28;20702;-74
2021/10/21 10:54:46;;;;;;;0.70;0.60;;;;;;;;;;5043471;28;20186;-75
2021/10/21 10:57:13;;;;;;;1.02;0.93;;;;;;;;;;5033894;28;20251;-74
2021/10/21 10:59:40;;;;;;;1.00;0.70;;;;;;;;;;5034499;28;20584;-75
2021/10/21 11:02:33;;;;;;;1.08;1.00;;;;;;;;;;5034621;28;20232;-75
2021/10/21 11:05:00;;;;;;;0.70;0.60;;;;;;;;;;5034582;28;20703;-75
2021/10/21 11:07:31;;;;;;;0.70;0.60;;;;;;;;;;5033732;28;20221;-75
2021/10/21 11:10:19;;;;;;;0.70;0.60;;;;;;;;;;5034400;28;20174;-74
2021/10/21 11:12:49;;;;;;;0.70;0.60;;;;;;;;;;5034268;28;20174;-75
2021/10/21 11:15:31;;;;;;;0.70;0.60;;;;;;;;;;5034116;28;20213;-75
2021/10/21 11:17:57;;;;;;;1.05;1.05;;;;;;;;;;5041662;28;20208;-75
2021/10/21 11:20:26;;;;;;;0.70;0.63;;;;;;;;;;5047391;28;20178;-72
2021/10/21 11:22:53;;;;;;;0.70;0.60;;;;;;;;;;5054139;28;20183;-74
2021/10/21 11:25:19;;;;;;;0.70;0.70;;;;;;;;;;5042559;28;20236;-74
2021/10/21 11:27:46;;;;;;;0.90;0.70;;;;;;;;;;5032992;28;20213;-75
2021/10/21 11:30:23;;;;;;;1.45;0.80;;;;;;;;;;5033956;28;20409;-73
2021/10/21 11:32:50;;;;;;;0.70;0.60;;;;;;;;;;5034106;28;20178;-74
2021/10/21 11:35:17;;;;;;;0.80;0.80;;;;;;;;;;5034056;28;20249;-74
2021/10/21 11:37:45;;;;;;;0.70;0.70;;;;;;;;;;5033166;28;20218;-73
2021/10/21 11:40:16;;;;;;;0.70;0.60;;;;;;;;;;5033815;28;20181;-73
2021/10/21 11:42:48;;;;;;;1.17;0.73;;;;;;;;;;5033990;28;20635;-72
2021/10/21 11:45:14;;;;;;;0.70;0.60;;;;;;;;;;5015728;28;20668;-73
2021/10/21 11:47:40;;;;;;;0.70;0.60;;;;;;;;;;5040890;28;20234;-72
2021/10/21 11:50:07;;;;;;;0.70;0.60;;;;;;;;;;5037240;28;20413;-73
2021/10/21 11:52:40;;;;;;;0.80;0.70;;;;;;;;;;5053473;28;20411;-73
2021/10/21 11:55:07;;;;;;;0.70;0.60;;;;;;;;;;5035650;28;20253;-74
2021/10/21 11:57:36;;;;;;;0.60;0.60;;;;;;;;;;5032864;28;20206;-74
2021/10/21 12:00:16;;;;;;;0.70;0.50;;;;;;;;;;5033329;28;20228;-74
2021/10/21 12:02:42;;;;;;;0.70;0.70;;;;;;;;;;5033520;28;20186;-75
2021/10/21 12:05:08;;;;;;;0.70;0.60;;;;;;;;;;5033420;28;20178;-75
2021/10/21 12:07:34;;;;;;;0.70;0.60;;;;;;;;;;5032139;28;20213;-76
2021/10/21 12:10:00;;;;;;;3.80;1.07;;;;;;;;;;5033409;28;20412;-76
2021/10/21 12:12:38;;;;;;;0.70;0.60;;;;;;;;;;5033222;28;20415;-76
2021/10/21 12:15:04;;;;;;;0.70;0.60;;;;;;;;;;5033041;28;20405;-75
2021/10/21 12:17:30;;;;;;;0.70;0.70;;;;;;;;;;5039048;28;20201;-76
2021/10/21 12:19:56;;;;;;;0.70;0.60;;;;;;;;;;5044626;28;20182;-75
2021/10/21 12:22:28;;;;;;;0.70;0.70;;;;;;;;;;5048413;28;20408;-75
2021/10/21 12:24:54;;;;;;;0.70;0.60;;;;;;;;;;5013522;28;20186;-76
2021/10/21 12:27:21;;;;;;;0.70;0.60;;;;;;;;;;5012351;28;20211;-75
2021/10/21 12:29:48;;;;;;;0.70;0.60;;;;;;;;;;5012608;28;20403;-75
2021/10/21 12:32:13;;;;;;;0.70;0.60;;;;;;;;;;5012888;28;20183;-74
2021/10/21 12:34:40;;;;;;;1.30;0.97;;;;;;;;;;5013013;28;20173;-76
2021/10/21 12:37:13;;;;;;;0.70;0.60;;;;;;;;;;5011785;28;21007;-75
2021/10/21 12:39:39;;;;;;;0.70;0.60;;;;;;;;;;5013113;28;20187;-75
2021/10/21 12:42:08;;;;;;;0.70;0.60;;;;;;;;;;5013028;28;20179;-76
2021/10/21 12:44:38;;;;;;;0.70;0.60;;;;;;;;;;5012608;28;20560;-75
2021/10/21 12:47:27;;;;;;;0.70;0.60;;;;;;;;;;5021119;28;20209;-77
2021/10/21 12:49:57;;;;;;;0.70;0.60;;;;;;;;;;5043946;28;20234;-74
2021/10/21 12:52:30;;;;;;;0.80;0.60;;;;;;;;;;5038186;28;20186;-75
2021/10/21 12:55:13;;;;;;;0.80;0.60;;;;;;;;;;5032346;28;20174;-74
2021/10/21 12:57:42;;;;;;;0.70;0.60;;;;;;;;;;5031387;28;20222;-75
2021/10/21 13:00:09;;;;;;;0.70;0.70;;;;;;;;;;5032194;28;20752;-75
2021/10/21 13:02:34;;;;;;;0.70;0.60;;;;;;;;;;5032239;28;20199;-74
2021/10/21 13:05:01;;;;;;;0.70;0.60;;;;;;;;;;5032019;28;20174;-74
2021/10/21 13:07:27;;;;;;;0.70;0.60;;;;;;;;;;5031203;28;20725;-74
2021/10/21 13:09:54;;;;;;;0.70;0.60;;;;;;;;;;5032028;28;20182;-75
2021/10/21 13:12:21;;;;;;;0.70;0.70;;;;;;;;;;5032120;28;20695;-75
2021/10/21 13:14:48;;;;;;;0.80;0.80;;;;;;;;;;5031770;28;20200;-73
2021/10/21 13:17:14;;;;;;;0.70;0.60;;;;;;;;;;5035959;28;20204;-75
2021/10/21 13:19:40;;;;;;;0.70;0.60;;;;;;;;;;5043451;28;20173;-76
2021/10/21 13:22:06;;;;;;;0.70;0.60;;;;;;;;;;5031036;28;20189;-75
2021/10/21 13:24:32;;;;;;;0.70;0.60;;;;;;;;;;5031758;28;20483;-74
2021/10/21 13:26:59;;;;;;;0.70;0.60;;;;;;;;;;5031000;28;20689;-74
2021/10/21 13:29:26;;;;;;;0.70;0.60;;;;;;;;;;5031890;28;20185;-74
2021/10/21 13:31:53;;;;;;;0.70;0.60;;;;;;;;;;5031943;28;20261;-74
2021/10/21 13:34:19;;;;;;;0.70;0.60;;;;;;;;;;5031718;28;20205;-74
2021/10/21 13:36:45;;;;;;;0.70;0.60;;;;;;;;;;5030885;28;20174;-74
2021/10/21 13:39:11;;;;;;;0.70;0.60;;;;;;;;;;5031607;28;20261;-75
2021/10/21 13:41:38;;;;;;;0.70;0.60;;;;;;;;;;5031887;28;20583;-75
2021/10/21 13:44:04;;;;;;;0.70;0.60;;;;;;;;;;5031124;28;20463;-74
2021/10/21 13:46:30;;;;;;;4.90;0.93;;;;;;;;;;5030710;28;20229;-75
2021/10/21 13:48:56;;;;;;;0.70;0.60;;;;;;;;;;5038084;28;20604;-75
2021/10/21 13:51:22;;;;;;;0.70;0.60;;;;;;;;;;5031258;28;20389;-74
2021/10/21 13:53:48;;;;;;;0.70;0.70;;;;;;;;;;5031525;28;20638;-74
2021/10/21 13:56:15;;;;;;;0.70;0.70;;;;;;;;;;5030894;28;20186;-75
2021/10/21 13:58:41;;;;;;;0.70;0.60;;;;;;;;;;5031266;28;20206;-75
2021/10/21 14:01:07;;;;;;;1.00;0.90;;;;;;;;;;5031613;28;20657;-74
2021/10/21 14:03:34;;;;;;;0.70;0.70;;;;;;;;;;5031341;28;20420;-74
2021/10/21 14:06:00;;;;;;;0.70;0.60;;;;;;;;;;5030955;28;20435;-75
2021/10/21 14:08:27;;;;;;;0.70;0.60;;;;;;;;;;5031443;28;20781;-74
2021/10/21 14:10:53;;;;;;;0.70;0.60;;;;;;;;;;5031761;28;20225;-74
2021/10/21 14:13:19;;;;;;;0.90;0.82;;;;;;;;;;5031540;28;20188;-74
2021/10/21 14:15:47;;;;;;;0.70;0.70;;;;;;;;;;5030644;28;20209;-74
2021/10/21 14:18:13;;;;;;;0.70;0.65;;;;;;;;;;5032487;28;20230;-74
2021/10/21 14:20:39;;;;;;;0.70;0.70;;;;;;;;;;5029653;28;20221;-74
2021/10/21 14:23:05;;;;;;;0.70;0.60;;;;;;;;;;5031754;28;20878;-74
2021/10/21 14:25:31;;;;;;;0.70;0.60;;;;;;;;;;5030569;28;20170;-74
2021/10/21 14:27:58;;;;;;;0.70;0.60;;;;;;;;;;5030268;28;20995;-73
2021/10/21 14:30:23;;;;;;;0.70;0.70;;;;;;;;;;5030695;28;20425;-74
2021/10/21 14:33:49;;;;;;;0.70;0.60;;;;;;;;;;5076204;28;20743;-75
2021/10/21 14:44:15;;;;;;;0.70;0.60;;;;;;;;;;5083727;27;20506;-74
2021/10/21 14:53:37;;;;;;;0.73;0.70;;;;;;;;;;5068484;28;20555;-75
2021/10/21 16:19:50;;;;;;;0.70;0.60;;;;;;;;;;5044142;28;20568;-75
2021/10/21 16:22:39;;;;;;;0.70;0.60;;;;;;;;;;5046892;28;20189;-76
2021/10/21 16:25:20;;;;;;;0.70;0.60;;;;;;;;;;5038526;28;20187;-74